sensor_id;sensor_type;location;lat;lon;timestamp;temperature;humidity
22192;DHT22;11261;52.456;10.850;2023-09-19T00:00:39;17.10;99.90
22192;DHT22;11261;52.456;10.850;2023-09-19T00:03:09;17.00;99.90
22192;DHT22;11261;52.456;10.850;2023-09-19T00:05:39;17.00;99.90
22192;DHT22;11261;52.456;10.850;2023-09-19T00:08:12;17.00;99.90
22192;DHT22;11261;52.456;10.850;2023-09-19T00:10:42;17.00;99.90
22192;DHT22;11261;52.456;10.850;2023-09-19T00:13:11;16.80;99.90
22192;DHT22;11261;52.456;10.850;2023-09-19T00:15:45;16.80;99.90
22192;DHT22;11261;52.456;10.850;2023-09-19T00:18:17;16.80;99.90
22192;DHT22;11261;52.456;10.850;2023-09-19T00:20:46;16.80;99.90
22192;DHT22;11261;52.456;10.850;2023-09-19T00:23:17;16.70;99.90
22192;DHT22;11261;52.456;10.850;2023-09-19T00:25:46;16.70;99.90
22192;DHT22;11261;52.456;10.850;2023-09-19T00:28:15;16.60;99.90
22192;DHT22;11261;52.456;10.850;2023-09-19T00:30:46;16.70;99.90
22192;DHT22;11261;52.456;10.850;2023-09-19T00:33:17;16.70;99.90
22192;DHT22;11261;52.456;10.850;2023-09-19T00:35:50;16.70;99.90
22192;DHT22;11261;52.456;10.850;2023-09-19T00:38:19;16.60;99.90
22192;DHT22;11261;52.456;10.850;2023-09-19T00:40:49;16.50;99.90
22192;DHT22;11261;52.456;10.850;2023-09-19T00:43:18;16.50;99.90
22192;DHT22;11261;52.456;10.850;2023-09-19T00:45:51;16.50;99.90
22192;DHT22;11261;52.456;10.850;2023-09-19T00:48:20;16.40;99.90
22192;DHT22;11261;52.456;10.850;2023-09-19T00:50:50;16.40;99.90
22192;DHT22;11261;52.456;10.850;2023-09-19T00:53:22;16.50;99.90
22192;DHT22;11261;52.456;10.850;2023-09-19T00:55:53;16.40;99.90
22192;DHT22;11261;52.456;10.850;2023-09-19T00:58:22;16.50;99.90
22192;DHT22;11261;52.456;10.850;2023-09-19T01:00:51;16.40;99.90
22192;DHT22;11261;52.456;10.850;2023-09-19T01:03:20;16.40;99.90
22192;DHT22;11261;52.456;10.850;2023-09-19T01:05:50;16.40;99.90
22192;DHT22;11261;52.456;10.850;2023-09-19T01:08:18;16.40;99.90
22192;DHT22;11261;52.456;10.850;2023-09-19T01:10:52;16.40;99.90
22192;DHT22;11261;52.456;10.850;2023-09-19T01:13:29;16.40;99.90
22192;DHT22;11261;52.456;10.850;2023-09-19T01:16:09;16.40;99.90
22192;DHT22;11261;52.456;10.850;2023-09-19T01:18:46;16.40;99.90
22192;DHT22;11261;52.456;10.850;2023-09-19T01:21:26;16.40;99.90
22192;DHT22;11261;52.456;10.850;2023-09-19T01:24:15;16.40;99.90
22192;DHT22;11261;52.456;10.850;2023-09-19T01:27:10;16.30;99.90
22192;DHT22;11261;52.456;10.850;2023-09-19T01:29:46;16.30;99.90
22192;DHT22;11261;52.456;10.850;2023-09-19T01:32:18;16.30;99.90
22192;DHT22;11261;52.456;10.850;2023-09-19T01:34:50;16.30;99.90
22192;DHT22;11261;52.456;10.850;2023-09-19T01:37:20;16.30;99.90
22192;DHT22;11261;52.456;10.850;2023-09-19T01:39:56;16.30;99.90
22192;DHT22;11261;52.456;10.850;2023-09-19T01:42:35;16.20;99.90
22192;DHT22;11261;52.456;10.850;2023-09-19T01:45:09;16.30;99.90
22192;DHT22;11261;52.456;10.850;2023-09-19T01:47:48;16.20;99.90
22192;DHT22;11261;52.456;10.850;2023-09-19T01:50:21;16.30;99.90
22192;DHT22;11261;52.456;10.850;2023-09-19T01:52:59;16.20;99.90
22192;DHT22;11261;52.456;10.850;2023-09-19T01:55:29;16.20;99.90
22192;DHT22;11261;52.456;10.850;2023-09-19T01:58:12;16.20;99.90
22192;DHT22;11261;52.456;10.850;2023-09-19T02:00:43;16.20;99.90
22192;DHT22;11261;52.456;10.850;2023-09-19T02:03:14;16.20;99.90
22192;DHT22;11261;52.456;10.850;2023-09-19T02:05:48;16.20;99.90
22192;DHT22;11261;52.456;10.850;2023-09-19T02:08:19;16.20;99.90
22192;DHT22;11261;52.456;10.850;2023-09-19T02:10:48;16.20;99.90
22192;DHT22;11261;52.456;10.850;2023-09-19T02:13:16;16.20;99.90
22192;DHT22;11261;52.456;10.850;2023-09-19T02:15:46;16.20;99.90
22192;DHT22;11261;52.456;10.850;2023-09-19T02:18:16;16.10;99.90
22192;DHT22;11261;52.456;10.850;2023-09-19T02:20:45;16.20;99.90
22192;DHT22;11261;52.456;10.850;2023-09-19T02:23:14;16.10;99.90
22192;DHT22;11261;52.456;10.850;2023-09-19T02:25:51;16.10;99.90
22192;DHT22;11261;52.456;10.850;2023-09-19T02:28:20;16.20;99.90
22192;DHT22;11261;52.456;10.850;2023-09-19T02:30:49;16.20;99.90
22192;DHT22;11261;52.456;10.850;2023-09-19T02:33:19;16.20;99.90
22192;DHT22;11261;52.456;10.850;2023-09-19T02:35:47;16.20;99.90
22192;DHT22;11261;52.456;10.850;2023-09-19T02:38:16;16.20;99.90
22192;DHT22;11261;52.456;10.850;2023-09-19T02:40:48;16.20;99.90
22192;DHT22;11261;52.456;10.850;2023-09-19T02:43:16;16.10;99.90
22192;DHT22;11261;52.456;10.850;2023-09-19T02:45:45;16.10;99.90
22192;DHT22;11261;52.456;10.850;2023-09-19T02:48:13;16.10;99.90
22192;DHT22;11261;52.456;10.850;2023-09-19T02:50:43;16.10;99.90
22192;DHT22;11261;52.456;10.850;2023-09-19T02:53:12;16.10;99.90
22192;DHT22;11261;52.456;10.850;2023-09-19T02:55:40;16.00;99.90
22192;DHT22;11261;52.456;10.850;2023-09-19T02:58:10;16.00;99.90
22192;DHT22;11261;52.456;10.850;2023-09-19T03:00:38;16.00;99.90
22192;DHT22;11261;52.456;10.850;2023-09-19T03:03:09;16.00;99.90
22192;DHT22;11261;52.456;10.850;2023-09-19T03:05:37;16.00;99.90
22192;DHT22;11261;52.456;10.850;2023-09-19T03:08:07;16.00;99.90
22192;DHT22;11261;52.456;10.850;2023-09-19T03:10:36;15.90;99.90
22192;DHT22;11261;52.456;10.850;2023-09-19T03:13:04;15.90;99.90
22192;DHT22;11261;52.456;10.850;2023-09-19T03:15:36;15.80;99.90
22192;DHT22;11261;52.456;10.850;2023-09-19T03:18:10;15.80;99.90
22192;DHT22;11261;52.456;10.850;2023-09-19T03:20:40;15.80;99.90
22192;DHT22;11261;52.456;10.850;2023-09-19T03:23:09;15.80;99.90
22192;DHT22;11261;52.456;10.850;2023-09-19T03:25:37;15.80;99.90
22192;DHT22;11261;52.456;10.850;2023-09-19T03:28:06;15.80;99.90
22192;DHT22;11261;52.456;10.850;2023-09-19T03:30:34;15.80;99.90
22192;DHT22;11261;52.456;10.850;2023-09-19T03:33:03;15.80;99.90
22192;DHT22;11261;52.456;10.850;2023-09-19T03:35:32;15.70;99.90
22192;DHT22;11261;52.456;10.850;2023-09-19T03:38:02;15.70;99.90
22192;DHT22;11261;52.456;10.850;2023-09-19T03:40:31;15.70;99.90
22192;DHT22;11261;52.456;10.850;2023-09-19T03:43:00;15.70;99.90
22192;DHT22;11261;52.456;10.850;2023-09-19T03:45:29;15.70;99.90
22192;DHT22;11261;52.456;10.850;2023-09-19T03:47:57;15.70;99.90
22192;DHT22;11261;52.456;10.850;2023-09-19T03:50:26;15.70;99.90
22192;DHT22;11261;52.456;10.850;2023-09-19T03:52:56;15.60;99.90
22192;DHT22;11261;52.456;10.850;2023-09-19T03:55:24;15.60;99.90
22192;DHT22;11261;52.456;10.850;2023-09-19T03:57:54;15.60;99.90
22192;DHT22;11261;52.456;10.850;2023-09-19T04:00:23;15.60;99.90
22192;DHT22;11261;52.456;10.850;2023-09-19T04:02:53;15.60;99.90
22192;DHT22;11261;52.456;10.850;2023-09-19T04:05:23;15.60;99.90
22192;DHT22;11261;52.456;10.850;2023-09-19T04:07:51;15.60;99.90
22192;DHT22;11261;52.456;10.850;2023-09-19T04:10:20;15.50;99.90
22192;DHT22;11261;52.456;10.850;2023-09-19T04:12:53;15.50;99.90
22192;DHT22;11261;52.456;10.850;2023-09-19T04:15:22;15.40;99.90
22192;DHT22;11261;52.456;10.850;2023-09-19T04:17:51;15.40;99.90
22192;DHT22;11261;52.456;10.850;2023-09-19T04:20:20;15.40;99.90
22192;DHT22;11261;52.456;10.850;2023-09-19T04:22:50;15.40;99.90
22192;DHT22;11261;52.456;10.850;2023-09-19T04:25:19;15.40;99.90
22192;DHT22;11261;52.456;10.850;2023-09-19T04:27:47;15.30;99.90
22192;DHT22;11261;52.456;10.850;2023-09-19T04:30:17;15.40;99.90
22192;DHT22;11261;52.456;10.850;2023-09-19T04:32:48;15.40;99.90
22192;DHT22;11261;52.456;10.850;2023-09-19T04:35:18;15.40;99.90
22192;DHT22;11261;52.456;10.850;2023-09-19T04:37:47;15.40;99.90
22192;DHT22;11261;52.456;10.850;2023-09-19T04:40:15;15.40;99.90
22192;DHT22;11261;52.456;10.850;2023-09-19T04:42:45;15.50;99.90
22192;DHT22;11261;52.456;10.850;2023-09-19T04:45:14;15.50;99.90
22192;DHT22;11261;52.456;10.850;2023-09-19T04:47:44;15.50;99.90
22192;DHT22;11261;52.456;10.850;2023-09-19T04:50:13;15.50;99.90
22192;DHT22;11261;52.456;10.850;2023-09-19T04:52:42;15.50;99.90
22192;DHT22;11261;52.456;10.850;2023-09-19T04:55:12;15.50;99.90
22192;DHT22;11261;52.456;10.850;2023-09-19T04:57:44;15.50;99.90
22192;DHT22;11261;52.456;10.850;2023-09-19T05:00:14;15.50;99.90
22192;DHT22;11261;52.456;10.850;2023-09-19T05:02:45;15.50;99.90
22192;DHT22;11261;52.456;10.850;2023-09-19T05:05:14;15.50;99.90
22192;DHT22;11261;52.456;10.850;2023-09-19T05:07:44;15.40;99.90
22192;DHT22;11261;52.456;10.850;2023-09-19T05:10:13;15.40;99.90
22192;DHT22;11261;52.456;10.850;2023-09-19T05:12:42;15.40;99.90
22192;DHT22;11261;52.456;10.850;2023-09-19T05:15:13;15.40;99.90
22192;DHT22;11261;52.456;10.850;2023-09-19T05:17:49;15.40;99.90
22192;DHT22;11261;52.456;10.850;2023-09-19T05:20:24;15.40;99.90
22192;DHT22;11261;52.456;10.850;2023-09-19T05:23:00;15.50;99.90
22192;DHT22;11261;52.456;10.850;2023-09-19T05:25:31;15.50;99.90
22192;DHT22;11261;52.456;10.850;2023-09-19T05:28:00;15.50;99.90
22192;DHT22;11261;52.456;10.850;2023-09-19T05:30:31;15.50;99.90
22192;DHT22;11261;52.456;10.850;2023-09-19T05:35:28;15.50;99.90
22192;DHT22;11261;52.456;10.850;2023-09-19T05:37:57;15.50;99.90
22192;DHT22;11261;52.456;10.850;2023-09-19T05:40:26;15.50;99.90
22192;DHT22;11261;52.456;10.850;2023-09-19T05:42:55;15.50;99.90
22192;DHT22;11261;52.456;10.850;2023-09-19T05:45:24;15.50;99.90
22192;DHT22;11261;52.456;10.850;2023-09-19T05:47:53;15.50;99.90
22192;DHT22;11261;52.456;10.850;2023-09-19T05:50:23;15.50;99.90
22192;DHT22;11261;52.456;10.850;2023-09-19T05:52:54;15.50;99.90
22192;DHT22;11261;52.456;10.850;2023-09-19T05:55:23;15.50;99.90
22192;DHT22;11261;52.456;10.850;2023-09-19T05:57:52;15.50;99.90
22192;DHT22;11261;52.456;10.850;2023-09-19T06:00:21;15.50;99.90
22192;DHT22;11261;52.456;10.850;2023-09-19T06:02:51;15.50;99.90
22192;DHT22;11261;52.456;10.850;2023-09-19T06:05:20;15.40;99.90
22192;DHT22;11261;52.456;10.850;2023-09-19T06:07:49;15.40;99.90
22192;DHT22;11261;52.456;10.850;2023-09-19T06:10:20;15.40;99.90
22192;DHT22;11261;52.456;10.850;2023-09-19T06:12:51;15.40;99.90
22192;DHT22;11261;52.456;10.850;2023-09-19T06:15:20;15.40;99.90
22192;DHT22;11261;52.456;10.850;2023-09-19T06:17:51;15.40;99.90
22192;DHT22;11261;52.456;10.850;2023-09-19T06:20:23;15.40;99.90
22192;DHT22;11261;52.456;10.850;2023-09-19T06:22:52;15.40;99.90
22192;DHT22;11261;52.456;10.850;2023-09-19T06:25:23;15.40;99.90
22192;DHT22;11261;52.456;10.850;2023-09-19T06:27:52;15.50;99.90
22192;DHT22;11261;52.456;10.850;2023-09-19T06:30:22;15.80;99.90
22192;DHT22;11261;52.456;10.850;2023-09-19T06:32:56;16.20;99.90
22192;DHT22;11261;52.456;10.850;2023-09-19T06:35:25;16.10;99.90
22192;DHT22;11261;52.456;10.850;2023-09-19T06:37:54;16.40;99.90
22192;DHT22;11261;52.456;10.850;2023-09-19T06:40:27;16.80;99.90
22192;DHT22;11261;52.456;10.850;2023-09-19T06:42:55;17.30;99.90
22192;DHT22;11261;52.456;10.850;2023-09-19T06:45:24;17.40;99.90
22192;DHT22;11261;52.456;10.850;2023-09-19T06:47:54;17.30;99.90
22192;DHT22;11261;52.456;10.850;2023-09-19T06:50:26;17.40;99.90
22192;DHT22;11261;52.456;10.850;2023-09-19T06:52:56;17.60;99.90
22192;DHT22;11261;52.456;10.850;2023-09-19T06:55:28;17.50;99.90
22192;DHT22;11261;52.456;10.850;2023-09-19T06:57:59;17.20;99.90
22192;DHT22;11261;52.456;10.850;2023-09-19T07:00:28;17.00;99.90
22192;DHT22;11261;52.456;10.850;2023-09-19T07:02:59;16.90;99.90
22192;DHT22;11261;52.456;10.850;2023-09-19T07:05:32;16.80;99.90
22192;DHT22;11261;52.456;10.850;2023-09-19T07:08:03;17.10;99.90
22192;DHT22;11261;52.456;10.850;2023-09-19T07:10:34;17.50;99.90
22192;DHT22;11261;52.456;10.850;2023-09-19T07:13:04;17.90;99.90
22192;DHT22;11261;52.456;10.850;2023-09-19T07:15:36;18.10;99.90
22192;DHT22;11261;52.456;10.850;2023-09-19T07:18:07;18.10;99.90
22192;DHT22;11261;52.456;10.850;2023-09-19T07:20:38;18.70;99.90
22192;DHT22;11261;52.456;10.850;2023-09-19T07:23:07;18.60;99.90
22192;DHT22;11261;52.456;10.850;2023-09-19T07:25:37;18.50;99.90
22192;DHT22;11261;52.456;10.850;2023-09-19T07:28:05;18.70;99.90
22192;DHT22;11261;52.456;10.850;2023-09-19T07:30:36;18.70;99.90
22192;DHT22;11261;52.456;10.850;2023-09-19T07:33:05;18.80;99.90
22192;DHT22;11261;52.456;10.850;2023-09-19T07:35:34;19.00;99.90
22192;DHT22;11261;52.456;10.850;2023-09-19T07:38:03;18.90;99.90
22192;DHT22;11261;52.456;10.850;2023-09-19T07:40:31;18.60;99.90
22192;DHT22;11261;52.456;10.850;2023-09-19T07:43:00;19.00;99.90
22192;DHT22;11261;52.456;10.850;2023-09-19T07:45:30;19.20;99.90
22192;DHT22;11261;52.456;10.850;2023-09-19T07:47:59;19.80;99.90
22192;DHT22;11261;52.456;10.850;2023-09-19T07:50:28;19.50;99.90
22192;DHT22;11261;52.456;10.850;2023-09-19T07:52:56;18.50;99.90
22192;DHT22;11261;52.456;10.850;2023-09-19T07:55:26;18.70;99.90
22192;DHT22;11261;52.456;10.850;2023-09-19T07:57:54;18.70;99.90
22192;DHT22;11261;52.456;10.850;2023-09-19T08:00:24;19.10;99.90
22192;DHT22;11261;52.456;10.850;2023-09-19T08:02:52;19.00;99.90
22192;DHT22;11261;52.456;10.850;2023-09-19T08:05:29;18.90;99.90
22192;DHT22;11261;52.456;10.850;2023-09-19T08:08:01;19.30;99.90
22192;DHT22;11261;52.456;10.850;2023-09-19T08:10:29;19.30;99.90
22192;DHT22;11261;52.456;10.850;2023-09-19T08:13:02;19.80;99.90
22192;DHT22;11261;52.456;10.850;2023-09-19T08:15:32;20.40;99.90
22192;DHT22;11261;52.456;10.850;2023-09-19T08:18:04;20.10;99.90
22192;DHT22;11261;52.456;10.850;2023-09-19T08:20:35;20.40;99.90
22192;DHT22;11261;52.456;10.850;2023-09-19T08:23:04;20.50;99.90
22192;DHT22;11261;52.456;10.850;2023-09-19T08:25:35;19.90;99.90
22192;DHT22;11261;52.456;10.850;2023-09-19T08:28:05;19.90;99.90
22192;DHT22;11261;52.456;10.850;2023-09-19T08:30:37;20.10;99.90
22192;DHT22;11261;52.456;10.850;2023-09-19T08:33:07;20.20;99.90
22192;DHT22;11261;52.456;10.850;2023-09-19T08:35:36;19.80;99.90
22192;DHT22;11261;52.456;10.850;2023-09-19T08:38:04;19.40;99.90
22192;DHT22;11261;52.456;10.850;2023-09-19T08:40:36;19.40;99.90
22192;DHT22;11261;52.456;10.850;2023-09-19T08:43:07;20.20;99.90
22192;DHT22;11261;52.456;10.850;2023-09-19T08:45:37;20.90;99.90
22192;DHT22;11261;52.456;10.850;2023-09-19T08:48:16;20.80;99.90
22192;DHT22;11261;52.456;10.850;2023-09-19T08:50:49;20.50;99.90
22192;DHT22;11261;52.456;10.850;2023-09-19T08:53:26;20.80;99.90
22192;DHT22;11261;52.456;10.850;2023-09-19T08:55:56;20.50;99.90
22192;DHT22;11261;52.456;10.850;2023-09-19T08:58:29;20.40;99.90
22192;DHT22;11261;52.456;10.850;2023-09-19T09:01:02;20.50;99.90
22192;DHT22;11261;52.456;10.850;2023-09-19T09:03:33;20.30;99.90
22192;DHT22;11261;52.456;10.850;2023-09-19T09:06:02;20.70;99.90
22192;DHT22;11261;52.456;10.850;2023-09-19T09:08:31;21.00;99.90
22192;DHT22;11261;52.456;10.850;2023-09-19T09:11:00;20.60;99.90
22192;DHT22;11261;52.456;10.850;2023-09-19T09:13:29;20.20;99.90
22192;DHT22;11261;52.456;10.850;2023-09-19T09:15:58;20.10;99.90
22192;DHT22;11261;52.456;10.850;2023-09-19T09:18:28;19.90;99.90
22192;DHT22;11261;52.456;10.850;2023-09-19T09:20:56;20.20;99.90
22192;DHT22;11261;52.456;10.850;2023-09-19T09:23:27;20.50;99.90
22192;DHT22;11261;52.456;10.850;2023-09-19T09:25:56;20.40;99.90
22192;DHT22;11261;52.456;10.850;2023-09-19T09:28:30;20.50;99.90
22192;DHT22;11261;52.456;10.850;2023-09-19T09:31:01;20.70;99.90
22192;DHT22;11261;52.456;10.850;2023-09-19T09:33:31;20.50;99.90
22192;DHT22;11261;52.456;10.850;2023-09-19T09:36:00;20.60;99.90
22192;DHT22;11261;52.456;10.850;2023-09-19T09:38:43;21.20;99.90
22192;DHT22;11261;52.456;10.850;2023-09-19T09:41:12;21.10;99.90
22192;DHT22;11261;52.456;10.850;2023-09-19T09:43:43;21.10;99.90
22192;DHT22;11261;52.456;10.850;2023-09-19T09:46:15;20.50;99.90
22192;DHT22;11261;52.456;10.850;2023-09-19T09:49:03;20.70;99.90
22192;DHT22;11261;52.456;10.850;2023-09-19T09:51:48;20.70;99.90
22192;DHT22;11261;52.456;10.850;2023-09-19T09:54:25;20.80;99.90
22192;DHT22;11261;52.456;10.850;2023-09-19T09:57:01;20.70;99.90
22192;DHT22;11261;52.456;10.850;2023-09-19T09:59:48;20.60;99.90
22192;DHT22;11261;52.456;10.850;2023-09-19T10:02:19;20.60;99.90
22192;DHT22;11261;52.456;10.850;2023-09-19T10:04:54;20.60;99.90
22192;DHT22;11261;52.456;10.850;2023-09-19T10:07:41;20.90;99.90
22192;DHT22;11261;52.456;10.850;2023-09-19T10:10:29;20.50;99.90
22192;DHT22;11261;52.456;10.850;2023-09-19T10:13:06;20.50;99.90
22192;DHT22;11261;52.456;10.850;2023-09-19T10:15:36;20.80;99.90
22192;DHT22;11261;52.456;10.850;2023-09-19T10:18:10;21.00;99.90
22192;DHT22;11261;52.456;10.850;2023-09-19T10:20:46;21.40;99.90
22192;DHT22;11261;52.456;10.850;2023-09-19T10:23:17;21.40;99.90
22192;DHT22;11261;52.456;10.850;2023-09-19T10:25:50;21.10;99.90
22192;DHT22;11261;52.456;10.850;2023-09-19T10:28:20;20.70;99.90
22192;DHT22;11261;52.456;10.850;2023-09-19T10:30:50;21.10;99.90
22192;DHT22;11261;52.456;10.850;2023-09-19T10:33:20;20.90;99.90
22192;DHT22;11261;52.456;10.850;2023-09-19T10:35:51;20.90;99.90
22192;DHT22;11261;52.456;10.850;2023-09-19T10:38:24;20.50;99.90
22192;DHT22;11261;52.456;10.850;2023-09-19T10:40:54;20.80;99.90
22192;DHT22;11261;52.456;10.850;2023-09-19T10:43:28;20.80;99.90
22192;DHT22;11261;52.456;10.850;2023-09-19T10:46:03;20.40;99.90
22192;DHT22;11261;52.456;10.850;2023-09-19T10:48:38;20.30;99.90
22192;DHT22;11261;52.456;10.850;2023-09-19T10:51:10;20.30;99.90
22192;DHT22;11261;52.456;10.850;2023-09-19T10:53:47;20.50;99.90
22192;DHT22;11261;52.456;10.850;2023-09-19T10:56:21;20.30;99.90
22192;DHT22;11261;52.456;10.850;2023-09-19T10:58:49;20.50;99.90
22192;DHT22;11261;52.456;10.850;2023-09-19T11:01:18;20.80;99.90
22192;DHT22;11261;52.456;10.850;2023-09-19T11:03:47;20.50;99.90
22192;DHT22;11261;52.456;10.850;2023-09-19T11:06:21;20.50;99.90
22192;DHT22;11261;52.456;10.850;2023-09-19T11:08:57;20.90;99.90
22192;DHT22;11261;52.456;10.850;2023-09-19T11:11:48;20.80;99.90
22192;DHT22;11261;52.456;10.850;2023-09-19T11:14:40;20.50;99.90
22192;DHT22;11261;52.456;10.850;2023-09-19T11:17:32;20.40;99.90
22192;DHT22;11261;52.456;10.850;2023-09-19T11:20:22;20.30;99.90
22192;DHT22;11261;52.456;10.850;2023-09-19T11:23:20;20.50;99.90
22192;DHT22;11261;52.456;10.850;2023-09-19T11:25:51;20.70;99.90
22192;DHT22;11261;52.456;10.850;2023-09-19T11:28:45;20.60;99.90
22192;DHT22;11261;52.456;10.850;2023-09-19T11:34:41;20.90;99.90
22192;DHT22;11261;52.456;10.850;2023-09-19T11:40:45;20.50;99.90
22192;DHT22;11261;52.456;10.850;2023-09-19T11:43:29;20.60;99.90
22192;DHT22;11261;52.456;10.850;2023-09-19T11:46:05;20.50;99.90
22192;DHT22;11261;52.456;10.850;2023-09-19T11:48:35;20.90;99.90
22192;DHT22;11261;52.456;10.850;2023-09-19T11:51:21;20.60;99.90
22192;DHT22;11261;52.456;10.850;2023-09-19T11:53:51;21.00;99.90
22192;DHT22;11261;52.456;10.850;2023-09-19T11:56:23;21.00;99.90
22192;DHT22;11261;52.456;10.850;2023-09-19T11:58:53;21.10;99.90
22192;DHT22;11261;52.456;10.850;2023-09-19T12:01:25;21.30;99.90
22192;DHT22;11261;52.456;10.850;2023-09-19T12:03:57;20.90;99.90
22192;DHT22;11261;52.456;10.850;2023-09-19T12:06:27;20.90;99.90
22192;DHT22;11261;52.456;10.850;2023-09-19T12:08:56;20.80;99.90
22192;DHT22;11261;52.456;10.850;2023-09-19T12:11:30;20.80;99.90
22192;DHT22;11261;52.456;10.850;2023-09-19T12:14:02;20.50;99.90
22192;DHT22;11261;52.456;10.850;2023-09-19T12:16:31;20.70;99.90
22192;DHT22;11261;52.456;10.850;2023-09-19T12:19:19;20.90;99.90
22192;DHT22;11261;52.456;10.850;2023-09-19T12:21:59;21.10;99.90
22192;DHT22;11261;52.456;10.850;2023-09-19T12:24:32;21.20;99.90
22192;DHT22;11261;52.456;10.850;2023-09-19T12:27:06;21.20;99.90
22192;DHT22;11261;52.456;10.850;2023-09-19T12:29:43;21.30;99.90
22192;DHT22;11261;52.456;10.850;2023-09-19T12:32:12;21.20;99.90
22192;DHT22;11261;52.456;10.850;2023-09-19T12:34:50;21.30;99.90
22192;DHT22;11261;52.456;10.850;2023-09-19T12:37:20;21.40;99.90
22192;DHT22;11261;52.456;10.850;2023-09-19T12:39:51;21.50;99.90
22192;DHT22;11261;52.456;10.850;2023-09-19T12:42:24;21.50;99.90
22192;DHT22;11261;52.456;10.850;2023-09-19T12:44:56;21.50;99.90
22192;DHT22;11261;52.456;10.850;2023-09-19T12:47:28;21.60;99.90
22192;DHT22;11261;52.456;10.850;2023-09-19T12:50:08;21.60;99.90
22192;DHT22;11261;52.456;10.850;2023-09-19T12:52:43;21.30;99.90
22192;DHT22;11261;52.456;10.850;2023-09-19T12:55:23;21.40;99.90
22192;DHT22;11261;52.456;10.850;2023-09-19T12:58:01;21.50;99.90
22192;DHT22;11261;52.456;10.850;2023-09-19T13:00:37;21.30;99.90
22192;DHT22;11261;52.456;10.850;2023-09-19T13:03:17;21.40;99.90
22192;DHT22;11261;52.456;10.850;2023-09-19T13:05:51;21.40;99.90
22192;DHT22;11261;52.456;10.850;2023-09-19T13:08:24;21.30;99.90
22192;DHT22;11261;52.456;10.850;2023-09-19T13:11:12;21.30;99.90
22192;DHT22;11261;52.456;10.850;2023-09-19T13:13:44;21.30;99.90
22192;DHT22;11261;52.456;10.850;2023-09-19T13:16:17;21.50;99.90
22192;DHT22;11261;52.456;10.850;2023-09-19T13:18:50;21.40;99.90
22192;DHT22;11261;52.456;10.850;2023-09-19T13:21:28;21.40;99.90
22192;DHT22;11261;52.456;10.850;2023-09-19T13:24:20;21.40;99.90
22192;DHT22;11261;52.456;10.850;2023-09-19T13:26:50;21.20;99.90
22192;DHT22;11261;52.456;10.850;2023-09-19T13:29:19;21.50;99.90
22192;DHT22;11261;52.456;10.850;2023-09-19T13:31:48;21.30;99.90
22192;DHT22;11261;52.456;10.850;2023-09-19T13:34:17;21.20;99.90
22192;DHT22;11261;52.456;10.850;2023-09-19T13:36:46;21.20;99.90
22192;DHT22;11261;52.456;10.850;2023-09-19T13:39:15;21.30;99.90
22192;DHT22;11261;52.456;10.850;2023-09-19T13:41:44;21.40;99.90
22192;DHT22;11261;52.456;10.850;2023-09-19T13:44:14;21.20;99.90
22192;DHT22;11261;52.456;10.850;2023-09-19T13:46:45;21.30;99.90
22192;DHT22;11261;52.456;10.850;2023-09-19T13:49:14;21.20;99.90
22192;DHT22;11261;52.456;10.850;2023-09-19T13:51:47;21.20;99.90
22192;DHT22;11261;52.456;10.850;2023-09-19T13:54:16;21.70;99.90
22192;DHT22;11261;52.456;10.850;2023-09-19T13:56:44;21.60;99.90
22192;DHT22;11261;52.456;10.850;2023-09-19T13:59:12;21.60;99.90
22192;DHT22;11261;52.456;10.850;2023-09-19T14:01:41;21.80;99.90
22192;DHT22;11261;52.456;10.850;2023-09-19T14:04:11;21.80;99.90
22192;DHT22;11261;52.456;10.850;2023-09-19T14:06:41;21.60;99.90
22192;DHT22;11261;52.456;10.850;2023-09-19T14:09:10;21.70;99.90
22192;DHT22;11261;52.456;10.850;2023-09-19T14:11:38;21.50;99.90
22192;DHT22;11261;52.456;10.850;2023-09-19T14:14:09;21.40;99.90
22192;DHT22;11261;52.456;10.850;2023-09-19T14:16:37;21.50;99.90
22192;DHT22;11261;52.456;10.850;2023-09-19T14:19:08;21.50;99.90
22192;DHT22;11261;52.456;10.850;2023-09-19T14:21:37;21.60;99.90
22192;DHT22;11261;52.456;10.850;2023-09-19T14:24:06;21.60;99.90
22192;DHT22;11261;52.456;10.850;2023-09-19T14:26:36;21.60;99.90
22192;DHT22;11261;52.456;10.850;2023-09-19T14:29:04;21.50;99.90
22192;DHT22;11261;52.456;10.850;2023-09-19T14:31:37;21.70;99.90
22192;DHT22;11261;52.456;10.850;2023-09-19T14:34:08;21.70;99.90
22192;DHT22;11261;52.456;10.850;2023-09-19T14:36:39;21.80;99.90
22192;DHT22;11261;52.456;10.850;2023-09-19T14:39:07;21.70;99.90
22192;DHT22;11261;52.456;10.850;2023-09-19T14:41:36;21.70;99.90
22192;DHT22;11261;52.456;10.850;2023-09-19T14:44:04;21.80;99.90
22192;DHT22;11261;52.456;10.850;2023-09-19T14:46:35;22.00;99.90
22192;DHT22;11261;52.456;10.850;2023-09-19T14:49:03;22.00;99.90
22192;DHT22;11261;52.456;10.850;2023-09-19T14:51:33;21.80;99.90
22192;DHT22;11261;52.456;10.850;2023-09-19T14:54:04;22.20;99.90
22192;DHT22;11261;52.456;10.850;2023-09-19T14:56:34;22.00;99.90
22192;DHT22;11261;52.456;10.850;2023-09-19T14:59:02;22.10;99.70
22192;DHT22;11261;52.456;10.850;2023-09-19T15:01:31;21.80;99.70
22192;DHT22;11261;52.456;10.850;2023-09-19T15:04:00;21.60;99.90
22192;DHT22;11261;52.456;10.850;2023-09-19T15:06:29;21.70;99.90
22192;DHT22;11261;52.456;10.850;2023-09-19T15:08:57;21.60;99.90
22192;DHT22;11261;52.456;10.850;2023-09-19T15:11:27;21.50;99.90
22192;DHT22;11261;52.456;10.850;2023-09-19T15:13:55;21.50;99.70
22192;DHT22;11261;52.456;10.850;2023-09-19T15:16:25;21.50;99.50
22192;DHT22;11261;52.456;10.850;2023-09-19T15:18:54;21.60;99.80
22192;DHT22;11261;52.456;10.850;2023-09-19T15:21:22;21.60;99.30
22192;DHT22;11261;52.456;10.850;2023-09-19T15:23:51;21.50;99.90
22192;DHT22;11261;52.456;10.850;2023-09-19T15:26:19;21.40;99.60
22192;DHT22;11261;52.456;10.850;2023-09-19T15:28:50;21.40;99.80
22192;DHT22;11261;52.456;10.850;2023-09-19T15:31:19;21.20;99.90
22192;DHT22;11261;52.456;10.850;2023-09-19T15:33:47;21.40;99.90
22192;DHT22;11261;52.456;10.850;2023-09-19T15:36:16;21.30;99.90
22192;DHT22;11261;52.456;10.850;2023-09-19T15:38:56;21.30;99.90
22192;DHT22;11261;52.456;10.850;2023-09-19T15:41:26;21.40;99.90
22192;DHT22;11261;52.456;10.850;2023-09-19T15:43:56;21.40;99.90
22192;DHT22;11261;52.456;10.850;2023-09-19T15:46:26;21.20;99.90
22192;DHT22;11261;52.456;10.850;2023-09-19T15:48:57;21.10;99.90
22192;DHT22;11261;52.456;10.850;2023-09-19T15:51:25;20.90;99.90